createdAt,value
2022-07-25T05:30:24.130Z,7.73
2022-07-25T05:32:51.389Z,7.03
2022-07-25T05:35:18.680Z,6.57
2022-07-25T05:37:46.221Z,7.50
2022-07-25T05:40:13.626Z,6.85
2022-07-25T05:42:40.858Z,6.97
2022-07-25T05:45:08.438Z,6.88
2022-07-25T05:47:35.780Z,6.93
2022-07-25T05:50:03.816Z,6.60
2022-07-25T05:52:31.207Z,6.43
2022-07-25T05:54:58.894Z,6.60
2022-07-25T05:57:26.472Z,6.65
2022-07-25T05:59:53.786Z,7.40
2022-07-25T06:02:21.145Z,6.07
2022-07-25T06:04:48.477Z,5.85
2022-07-25T06:07:17.225Z,7.43
2022-07-25T06:09:44.588Z,6.63
2022-07-25T06:12:11.948Z,5.68
2022-07-25T06:14:39.561Z,6.43
2022-07-25T06:17:06.815Z,6.22
2022-07-25T06:19:34.170Z,6.00
2022-07-25T06:22:02.012Z,6.18
2022-07-25T06:24:29.267Z,6.80
2022-07-25T06:26:56.504Z,6.85
2022-07-25T06:29:24.066Z,6.38
2022-07-25T06:31:51.301Z,7.00
2022-07-25T06:34:18.614Z,7.03
2022-07-25T06:36:46.170Z,6.72
2022-07-25T06:39:13.377Z,7.35
2022-07-25T06:41:40.650Z,6.90
2022-07-25T06:44:08.777Z,8.02
2022-07-25T06:46:36.270Z,7.10
2022-07-25T06:49:04.490Z,7.80
2022-07-25T06:51:31.816Z,7.07
2022-07-25T06:53:59.370Z,7.05
2022-07-25T06:56:30.984Z,6.85
2022-07-25T06:58:58.873Z,7.47
2022-07-25T07:01:34.190Z,7.57
2022-07-25T07:04:01.609Z,7.50
2022-07-25T07:06:29.085Z,7.22
2022-07-25T07:08:56.579Z,7.43
2022-07-25T07:11:24.816Z,7.25
2022-07-25T07:13:52.134Z,8.13
2022-07-25T07:16:20.463Z,6.82
2022-07-25T07:18:49.423Z,6.53
2022-07-25T07:21:21.146Z,7.07
2022-07-25T07:23:49.152Z,6.28
2022-07-25T07:26:21.544Z,5.90
2022-07-25T07:28:49.505Z,6.70
2022-07-25T07:31:18.392Z,6.55
2022-07-25T07:33:49.440Z,6.18
2022-07-25T07:36:17.500Z,5.93
2022-07-25T07:38:45.702Z,7.15
2022-07-25T07:41:13.420Z,6.07
2022-07-25T07:43:42.118Z,7.20
2022-07-25T07:46:09.519Z,6.45
2022-07-25T07:48:37.241Z,6.60
2022-07-25T07:51:05.191Z,5.85
2022-07-25T07:53:52.665Z,6.75
2022-07-25T07:56:20.431Z,6.13
2022-07-25T07:58:48.269Z,5.38
2022-07-25T08:01:15.540Z,6.03
2022-07-25T08:03:42.783Z,6.15
2022-07-25T08:06:10.279Z,6.25
2022-07-25T08:08:37.846Z,5.57
2022-07-25T08:11:05.340Z,6.30
2022-07-25T08:13:36.061Z,6.50
2022-07-25T08:16:04.364Z,7.30
2022-07-25T08:18:33.034Z,6.53
2022-07-25T08:21:06.444Z,5.88
2022-07-25T08:23:35.818Z,6.68
2022-07-25T08:26:04.069Z,6.22
2022-07-25T08:28:32.236Z,5.88
2022-07-25T08:30:59.636Z,5.25
2022-07-25T08:33:27.198Z,6.10
2022-07-25T08:35:55.895Z,7.38
2022-07-25T08:38:25.016Z,6.15
2022-07-25T08:40:54.731Z,6.35
2022-07-25T08:43:22.199Z,6.05
2022-07-25T08:45:52.205Z,5.88
2022-07-25T08:48:23.759Z,5.97
2022-07-25T08:50:52.032Z,6.43
2022-07-25T08:53:36.291Z,7.30
2022-07-25T08:56:11.579Z,5.70
2022-07-25T08:58:41.554Z,5.03
2022-07-25T09:01:09.477Z,5.75
2022-07-25T09:03:36.902Z,5.80
2022-07-25T09:06:16.564Z,5.75
2022-07-25T09:09:00.671Z,6.28
2022-07-25T09:14:09.246Z,5.57
2022-07-25T09:19:11.388Z,6.00
2022-07-25T09:24:16.111Z,4.93
2022-07-25T09:26:51.105Z,5.63
2022-07-25T09:29:22.120Z,5.40
2022-07-25T09:31:49.828Z,5.90
2022-07-25T09:34:38.180Z,4.88
2022-07-25T09:37:08.120Z,4.72
2022-07-25T09:42:24.797Z,4.60
2022-07-25T09:45:12.698Z,4.95
2022-07-25T09:48:01.452Z,5.35
2022-07-25T09:50:31.730Z,4.45
2022-07-25T09:53:02.626Z,5.57
2022-07-25T09:55:30.980Z,5.22
2022-07-25T09:57:58.689Z,4.72
2022-07-25T10:00:31.408Z,4.45
2022-07-25T10:03:26.111Z,4.88
2022-07-25T10:06:20.872Z,4.97
2022-07-25T10:08:51.000Z,4.70
2022-07-25T10:11:24.235Z,4.88
2022-07-25T10:13:54.326Z,5.28
2022-07-25T10:16:24.388Z,5.68
2022-07-25T10:18:54.570Z,4.72
2022-07-25T10:21:26.710Z,5.00
2022-07-25T10:24:07.470Z,5.25
2022-07-25T10:26:50.955Z,4.90
2022-07-25T10:29:18.667Z,5.07
2022-07-25T10:31:51.207Z,4.05
2022-07-25T10:34:32.173Z,4.57
2022-07-25T10:37:13.650Z,4.70
2022-07-25T10:39:44.912Z,4.90
2022-07-25T10:42:15.089Z,4.68
2022-07-25T10:44:52.134Z,4.97
2022-07-25T10:47:24.848Z,4.35
2022-07-25T10:50:25.609Z,4.30
2022-07-25T10:52:57.710Z,3.92
2022-07-25T10:55:26.092Z,4.05
2022-07-25T10:58:17.736Z,5.05
2022-07-25T11:00:45.623Z,4.65
2022-07-25T11:03:17.830Z,4.22
2022-07-25T11:05:47.704Z,4.75
2022-07-25T11:08:21.957Z,4.47
2022-07-25T11:10:52.455Z,4.80
2022-07-25T11:13:19.739Z,4.28
2022-07-25T11:15:47.129Z,5.40
2022-07-25T11:18:14.591Z,4.70
2022-07-25T11:20:41.947Z,4.43
2022-07-25T11:23:09.197Z,5.55
2022-07-25T11:25:36.406Z,5.05
2022-07-25T11:28:04.059Z,4.85
2022-07-25T11:30:32.453Z,4.53
2022-07-25T11:33:01.645Z,6.13
2022-07-25T11:35:31.375Z,4.35
2022-07-25T11:38:02.482Z,5.30
2022-07-25T11:40:32.602Z,5.10
2022-07-25T11:43:00.398Z,6.10
2022-07-25T11:45:30.496Z,4.85
2022-07-25T11:48:09.644Z,4.85
2022-07-25T11:50:39.362Z,4.45
2022-07-25T11:53:09.054Z,4.95
2022-07-25T11:55:42.832Z,4.55
2022-07-25T11:58:13.573Z,5.25
2022-07-25T12:00:47.589Z,6.00
2022-07-25T12:03:20.247Z,5.50
2022-07-25T12:05:49.376Z,6.32
2022-07-25T12:08:19.262Z,5.32
2022-07-25T12:10:48.433Z,5.65
2022-07-25T12:13:25.701Z,6.15
2022-07-25T12:15:53.965Z,5.30
2022-07-25T12:18:21.318Z,5.22
2022-07-25T12:20:48.544Z,5.85
2022-07-25T12:23:16.046Z,5.80
2022-07-25T12:25:45.496Z,6.13
2022-07-25T12:28:13.967Z,5.63
2022-07-25T12:30:44.429Z,6.22
2022-07-25T12:33:12.965Z,6.22
2022-07-25T12:35:41.577Z,6.15
2022-07-25T12:38:09.270Z,6.07
2022-07-25T12:40:36.926Z,6.72
2022-07-25T12:43:05.056Z,6.20
2022-07-25T12:45:32.477Z,5.70
2022-07-25T12:47:59.797Z,5.57
2022-07-25T12:50:27.099Z,6.35
2022-07-25T12:52:54.727Z,6.13
2022-07-25T12:55:22.726Z,5.38
2022-07-25T12:57:50.392Z,5.05
2022-07-25T13:00:20.444Z,5.78
2022-07-25T13:02:49.573Z,5.28
2022-07-25T13:05:17.725Z,5.85
2022-07-25T13:07:45.243Z,6.10
2022-07-25T13:10:12.745Z,5.55
2022-07-25T13:12:39.979Z,6.15
2022-07-25T13:15:07.992Z,5.90
2022-07-25T13:17:35.509Z,5.93
2022-07-25T13:20:03.710Z,5.20
2022-07-25T13:22:34.052Z,5.40
2022-07-25T13:25:01.352Z,5.15
2022-07-25T13:27:28.622Z,5.57
2022-07-25T13:29:56.186Z,4.68
2022-07-25T13:32:23.976Z,5.55
2022-07-25T13:34:51.510Z,6.32
2022-07-25T13:37:18.715Z,6.40
2022-07-25T13:39:45.979Z,5.65
2022-07-25T13:42:13.389Z,5.80
2022-07-25T13:44:40.645Z,5.75
2022-07-25T13:47:07.827Z,5.85
2022-07-25T13:49:36.852Z,6.13
2022-07-25T13:52:04.643Z,6.43
2022-07-25T13:54:32.169Z,5.93
2022-07-25T13:56:59.651Z,6.72
2022-07-25T13:59:26.941Z,6.65
2022-07-25T14:01:54.390Z,5.60
2022-07-25T14:04:22.834Z,6.95
2022-07-25T14:06:52.221Z,5.63
2022-07-25T14:09:21.092Z,5.97
2022-07-25T14:11:49.406Z,6.00
2022-07-25T14:14:17.454Z,5.38
2022-07-25T14:16:45.642Z,5.55
2022-07-25T14:19:13.126Z,6.18
2022-07-25T14:21:40.558Z,5.07
2022-07-25T14:24:08.270Z,6.13
2022-07-25T14:26:35.663Z,5.18
2022-07-25T14:29:03.995Z,5.60
2022-07-25T14:31:32.909Z,6.43
2022-07-25T14:34:00.522Z,6.15
2022-07-25T14:36:27.918Z,5.68
2022-07-25T14:38:55.380Z,6.00
2022-07-25T14:41:22.686Z,6.97
2022-07-25T14:43:49.941Z,5.57
2022-07-25T14:46:17.208Z,5.97
2022-07-25T14:48:45.525Z,5.30
2022-07-25T14:51:13.403Z,5.32
2022-07-25T14:53:40.559Z,4.80
2022-07-25T14:56:08.428Z,5.80
2022-07-25T14:58:36.168Z,6.20
2022-07-25T15:01:03.734Z,4.78
2022-07-25T15:03:31.227Z,6.18
2022-07-25T15:05:58.496Z,5.95
2022-07-25T15:08:25.903Z,5.78
2022-07-25T15:10:53.113Z,6.25
2022-07-25T15:13:31.158Z,5.70
2022-07-25T15:15:59.773Z,6.50
2022-07-25T15:18:27.414Z,5.82
2022-07-25T15:20:55.319Z,5.47
2022-07-25T15:23:24.907Z,5.53
2022-07-25T15:26:08.677Z,4.95
2022-07-25T15:28:38.495Z,5.32
2022-07-25T15:31:06.556Z,6.05
2022-07-25T15:33:34.286Z,5.45
2022-07-25T15:36:01.545Z,5.45
2022-07-25T15:38:29.282Z,5.32
2022-07-25T15:40:57.498Z,4.63
2022-07-25T15:43:25.992Z,4.90
2022-07-25T15:45:53.388Z,5.32
2022-07-25T15:48:20.669Z,4.50
2022-07-25T15:50:54.428Z,5.38
2022-07-25T15:53:22.211Z,4.40
2022-07-25T15:55:49.868Z,4.47
2022-07-25T15:58:17.209Z,4.78
